Time;durP1;ratioP1;P1;durP2;ratioP2;P2;SDS_P1;SDS_P2;PMS_P1;PMS_P2;Temp;Humidity;BMP_temperature;BMP_pressure;BME280_temperature;BME280_humidity;BME280_pressure;Samples;Min_cycle;Max_cycle;Signal;HPM_P1;HPM_P2
2021/03/09 00:01:36;;;;;;;19.77;14.30;;;19.70;99.90;;;;;;4996311;28;20043;-35
2021/03/09 00:04:01;;;;;;;24.67;14.82;;;19.70;99.90;;;;;;4995431;28;20424;-35
2021/03/09 00:06:27;;;;;;;27.90;12.85;;;19.60;99.90;;;;;;5011411;28;20459;-35
2021/03/09 00:08:53;;;;;;;17.77;12.77;;;19.60;99.90;;;;;;5007565;28;20042;-35
2021/03/09 00:11:19;;;;;;;18.73;12.02;;;19.60;99.90;;;;;;4995243;28;20058;-35
2021/03/09 00:13:45;;;;;;;21.30;11.07;;;19.60;99.90;;;;;;5005484;28;20022;-35
2021/03/09 00:16:11;;;;;;;19.17;12.73;;;19.60;99.90;;;;;;5014849;28;20018;-35
2021/03/09 00:18:36;;;;;;;17.00;10.55;;;19.60;99.90;;;;;;5005408;28;20022;-35
2021/03/09 00:21:02;;;;;;;18.20;10.05;;;19.60;99.90;;;;;;5001045;28;20029;-35
2021/03/09 00:23:28;;;;;;;16.60;10.77;;;19.60;99.90;;;;;;5012601;28;20510;-35
2021/03/09 00:25:55;;;;;;;16.17;9.95;;;19.50;99.90;;;;;;5002354;28;20057;-35
2021/03/09 00:28:21;;;;;;;15.27;9.43;;;19.50;99.90;;;;;;5003143;28;20033;-35
2021/03/09 00:30:47;;;;;;;12.20;8.57;;;19.50;99.90;;;;;;5012838;28;20022;-35
2021/03/09 00:33:13;;;;;;;17.02;8.82;;;19.50;99.90;;;;;;5014498;28;20071;-35
2021/03/09 00:35:39;;;;;;;18.10;8.75;;;19.40;99.90;;;;;;5013136;28;20029;-35
2021/03/09 00:38:05;;;;;;;17.23;8.30;;;19.50;99.90;;;;;;5013205;28;20468;-35
2021/03/09 00:40:31;;;;;;;11.98;8.45;;;19.50;99.90;;;;;;5006879;28;20029;-35
2021/03/09 00:42:56;;;;;;;15.57;8.27;;;19.40;99.90;;;;;;4995289;28;20034;-35
2021/03/09 00:45:22;;;;;;;15.35;7.72;;;19.40;99.90;;;;;;4994621;28;20397;-35
2021/03/09 00:47:48;;;;;;;14.90;8.75;;;19.40;99.90;;;;;;4994538;28;20048;-35
2021/03/09 00:50:14;;;;;;;14.25;6.80;;;19.40;99.90;;;;;;4993574;28;20030;-32
2021/03/09 00:52:40;;;;;;;13.65;7.00;;;19.40;99.90;;;;;;5006295;28;20053;-32
2021/03/09 00:55:07;;;;;;;18.15;7.53;;;19.40;99.90;;;;;;5001964;28;20065;-31
2021/03/09 00:57:33;;;;;;;11.57;6.63;;;19.30;99.90;;;;;;5010627;28;20504;-32
2021/03/09 00:59:58;;;;;;;10.73;6.57;;;19.30;99.90;;;;;;5000997;28;20118;-33
2021/03/09 01:02:24;;;;;;;15.38;6.85;;;19.30;99.90;;;;;;4995112;28;20109;-32
2021/03/09 01:04:50;;;;;;;14.18;7.20;;;19.30;99.90;;;;;;4994652;28;20030;-33
2021/03/09 01:07:16;;;;;;;10.60;5.97;;;19.30;99.90;;;;;;5008318;28;20050;-33
2021/03/09 01:09:42;;;;;;;12.07;6.32;;;19.20;99.90;;;;;;5013678;28;20468;-31
2021/03/09 01:12:08;;;;;;;11.50;5.60;;;19.20;99.90;;;;;;5013408;28;20026;-34
2021/03/09 01:14:34;;;;;;;15.75;6.28;;;19.20;99.90;;;;;;4994308;28;20026;-35
2021/03/09 01:17:00;;;;;;;10.23;6.13;;;19.20;99.90;;;;;;4993145;28;20038;-35
2021/03/09 01:19:26;;;;;;;10.77;6.13;;;19.20;99.90;;;;;;4994991;28;20457;-34
2021/03/09 01:21:51;;;;;;;14.65;6.70;;;19.20;99.90;;;;;;4995677;28;20049;-35
2021/03/09 01:24:17;;;;;;;7.28;5.10;;;19.10;99.90;;;;;;4998831;28;20554;-35
2021/03/09 01:26:43;;;;;;;9.57;6.10;;;19.10;99.90;;;;;;4993759;28;20022;-35
2021/03/09 01:29:09;;;;;;;9.98;5.30;;;19.10;99.90;;;;;;5010001;28;20025;-35
2021/03/09 01:31:35;;;;;;;16.20;5.70;;;19.20;99.90;;;;;;5011780;28;20095;-35
2021/03/09 01:34:01;;;;;;;9.90;5.05;;;19.10;99.90;;;;;;5012798;28;20025;-35
2021/03/09 01:36:27;;;;;;;16.27;6.20;;;19.10;99.90;;;;;;5012116;28;20021;-34
2021/03/09 01:38:53;;;;;;;10.10;5.63;;;19.10;99.90;;;;;;5000580;28;20030;-35
2021/03/09 01:41:19;;;;;;;10.13;5.28;;;19.10;99.90;;;;;;5014001;28;20037;-34
2021/03/09 01:43:45;;;;;;;9.00;4.93;;;19.10;99.90;;;;;;5010870;28;20092;-35
2021/03/09 01:46:12;;;;;;;13.23;5.80;;;19.10;99.90;;;;;;5013079;28;20368;-34
2021/03/09 01:48:43;;;;;;;13.07;5.85;;;19.10;99.90;;;;;;5012228;28;20042;-34
2021/03/09 01:51:11;;;;;;;12.43;5.18;;;19.00;99.90;;;;;;5010988;28;20105;-35
2021/03/09 01:53:37;;;;;;;11.98;5.03;;;19.00;99.90;;;;;;5004716;28;20048;-35
2021/03/09 01:56:03;;;;;;;12.23;5.70;;;19.00;99.90;;;;;;4998226;28;20424;-34
2021/03/09 01:58:30;;;;;;;10.50;5.30;;;19.00;99.90;;;;;;5010780;28;20534;-35
2021/03/09 02:00:57;;;;;;;11.23;5.38;;;19.00;99.90;;;;;;4996115;28;20036;-34
2021/03/09 02:03:22;;;;;;;13.65;5.68;;;19.00;99.90;;;;;;4995681;28;20068;-35
2021/03/09 02:05:48;;;;;;;16.15;5.95;;;19.00;99.90;;;;;;4993464;28;20065;-35
2021/03/09 02:08:15;;;;;;;11.75;6.28;;;19.00;99.90;;;;;;5003489;28;20412;-34
2021/03/09 02:10:41;;;;;;;9.80;6.05;;;18.90;99.90;;;;;;5013580;28;20335;-35
2021/03/09 02:13:25;;;;;;;13.40;5.18;;;18.90;99.90;;;;;;5006408;28;20022;-35
2021/03/09 02:15:59;;;;;;;9.95;4.93;;;18.90;99.90;;;;;;4997030;28;20069;-34
2021/03/09 02:18:37;;;;;;;13.07;6.13;;;18.90;99.90;;;;;;5008288;28;20022;-35
2021/03/09 02:21:33;;;;;;;16.15;5.55;;;18.90;99.90;;;;;;5011242;28;20495;-34
2021/03/09 02:24:11;;;;;;;7.75;4.78;;;18.90;99.90;;;;;;5001974;28;20362;-35
2021/03/09 02:26:55;;;;;;;;;;;18.90;99.90;;;;;;5015904;28;20025;-35
2021/03/09 02:29:42;;;;;;;9.88;4.50;;;18.90;99.90;;;;;;5013594;28;20063;-34
2021/03/09 02:32:16;;;;;;;9.82;5.30;;;18.80;99.90;;;;;;5003885;28;20041;-34
2021/03/09 02:34:51;;;;;;;12.13;4.65;;;18.90;99.90;;;;;;4996881;28;20102;-35
2021/03/09 02:37:18;;;;;;;10.63;4.72;;;18.90;99.90;;;;;;5009122;28;20026;-35
2021/03/09 02:39:48;;;;;;;8.88;4.40;;;18.90;99.90;;;;;;5016730;28;20021;-34
2021/03/09 02:42:24;;;;;;;8.27;4.53;;;18.80;99.90;;;;;;5004844;28;20022;-34
2021/03/09 02:44:58;;;;;;;13.20;5.68;;;18.80;99.90;;;;;;4997244;28;20424;-34
2021/03/09 02:47:24;;;;;;;12.77;5.05;;;18.80;99.90;;;;;;4997027;28;20026;-34
2021/03/09 02:49:53;;;;;;;9.50;5.50;;;18.80;99.90;;;;;;5007066;28;20026;-34
2021/03/09 02:52:22;;;;;;;8.90;5.20;;;18.80;99.90;;;;;;5006541;28;20026;-35
2021/03/09 02:54:50;;;;;;;13.63;5.57;;;18.80;99.90;;;;;;5003240;28;20080;-34
2021/03/09 02:57:18;;;;;;;12.10;5.55;;;18.80;99.90;;;;;;5010246;28;20021;-35
2021/03/09 02:59:45;;;;;;;9.57;4.47;;;18.80;99.90;;;;;;5000146;28;20030;-35
2021/03/09 03:02:16;;;;;;;11.93;4.78;;;18.80;99.90;;;;;;4996581;28;20118;-35
2021/03/09 03:04:46;;;;;;;10.70;4.72;;;18.80;99.90;;;;;;5011984;28;20022;-35
2021/03/09 03:07:12;;;;;;;11.07;5.00;;;18.70;99.90;;;;;;4996486;28;20049;-35
2021/03/09 03:09:40;;;;;;;11.27;5.22;;;18.70;99.90;;;;;;4997249;28;20396;-35
2021/03/09 03:12:07;;;;;;;12.32;5.65;;;18.70;99.90;;;;;;5014079;28;20018;-34
2021/03/09 03:14:37;;;;;;;11.55;4.90;;;18.70;99.90;;;;;;4996466;28;20428;-35
2021/03/09 03:17:04;;;;;;;7.88;4.90;;;18.70;99.90;;;;;;4996533;28;20123;-33
2021/03/09 03:19:32;;;;;;;11.40;5.07;;;18.70;99.90;;;;;;5003816;28;20030;-33
2021/03/09 03:21:58;;;;;;;;;;;18.70;99.90;;;;;;5004883;28;20050;-34
2021/03/09 03:24:27;;;;;;;12.25;5.35;;;18.70;99.90;;;;;;5006901;28;19906;-34
2021/03/09 03:26:54;;;;;;;14.85;5.20;;;18.80;99.90;;;;;;4996473;28;20384;-34
2021/03/09 03:29:21;;;;;;;14.17;5.40;;;18.80;99.90;;;;;;4995950;28;20029;-34
2021/03/09 03:31:48;;;;;;;11.20;5.53;;;18.70;99.90;;;;;;5012355;28;20272;-33
2021/03/09 03:34:15;;;;;;;8.15;4.32;;;18.70;99.90;;;;;;5015248;28;20026;-34
2021/03/09 03:36:41;;;;;;;7.90;4.35;;;18.70;99.90;;;;;;4999346;28;20022;-34
2021/03/09 03:39:09;;;;;;;10.52;4.65;;;18.70;99.90;;;;;;4995559;28;20022;-34
2021/03/09 03:41:35;;;;;;;;;;;18.70;99.90;;;;;;4995604;28;20081;-34
2021/03/09 03:44:01;;;;;;;9.27;4.78;;;18.70;99.90;;;;;;4994894;28;19929;-34
2021/03/09 03:46:27;;;;;;;11.13;4.40;;;18.70;99.90;;;;;;5001316;28;20036;-34
2021/03/09 03:48:53;;;;;;;13.75;5.22;;;18.70;99.90;;;;;;4999427;28;20034;-33
2021/03/09 03:51:26;;;;;;;18.52;5.35;;;18.70;99.90;;;;;;5005915;28;20030;-34
2021/03/09 03:53:55;;;;;;;9.13;4.95;;;18.70;99.90;;;;;;4994265;28;20026;-34
2021/03/09 03:56:50;;;;;;;11.38;5.32;;;18.60;99.90;;;;;;5003409;28;20036;-33
2021/03/09 03:59:19;;;;;;;13.50;6.30;;;18.60;99.90;;;;;;5015349;28;20030;-34
2021/03/09 04:01:46;;;;;;;9.68;5.18;;;18.70;99.90;;;;;;5003416;28;20053;-34
2021/03/09 04:04:14;;;;;;;13.65;5.13;;;18.60;99.90;;;;;;4995736;28;20076;-34
2021/03/09 04:06:53;;;;;;;14.35;5.97;;;18.60;99.90;;;;;;5005435;28;20042;-34
2021/03/09 04:09:20;;;;;;;8.65;4.63;;;18.60;99.90;;;;;;5015158;28;20034;-34
2021/03/09 04:11:47;;;;;;;12.85;5.60;;;18.60;99.90;;;;;;5004270;28;20816;-34
2021/03/09 04:14:17;;;;;;;10.38;6.07;;;18.60;99.90;;;;;;5000774;28;20119;-34
2021/03/09 04:16:47;;;;;;;15.27;6.03;;;18.60;99.90;;;;;;5006456;28;20469;-34
2021/03/09 04:19:14;;;;;;;10.90;5.60;;;18.60;99.90;;;;;;5000032;28;20025;-34
2021/03/09 04:21:42;;;;;;;12.95;5.60;;;18.60;99.90;;;;;;5014963;28;20022;-34
2021/03/09 04:24:09;;;;;;;;;;;18.60;99.90;;;;;;5011073;28;20477;-34
2021/03/09 04:26:36;;;;;;;14.10;5.47;;;18.60;99.90;;;;;;4995129;28;19909;-34
2021/03/09 04:29:03;;;;;;;12.07;6.90;;;18.60;99.90;;;;;;4997692;28;20101;-34
2021/03/09 04:31:29;;;;;;;12.35;6.50;;;18.60;99.90;;;;;;5014725;28;20464;-34
2021/03/09 04:33:55;;;;;;;10.52;6.13;;;18.60;99.90;;;;;;5014014;28;20057;-34
2021/03/09 04:36:22;;;;;;;10.85;5.95;;;18.50;99.90;;;;;;5014550;28;20099;-34
2021/03/09 04:38:48;;;;;;;16.05;6.68;;;18.60;99.90;;;;;;5014451;28;20525;-34
2021/03/09 04:41:15;;;;;;;13.95;6.40;;;18.60;99.90;;;;;;4995004;28;20034;-34
2021/03/09 04:43:41;;;;;;;11.95;6.15;;;18.60;99.90;;;;;;4994711;28;20093;-34
2021/03/09 04:46:08;;;;;;;10.80;6.32;;;18.60;99.90;;;;;;4995329;28;20113;-34
2021/03/09 04:48:39;;;;;;;11.60;6.70;;;18.50;99.90;;;;;;4994171;28;20019;-35
2021/03/09 04:51:11;;;;;;;12.52;6.40;;;18.50;99.90;;;;;;5012163;28;20029;-35
2021/03/09 04:53:39;;;;;;;12.13;6.32;;;18.50;99.90;;;;;;5014268;28;20076;-34
2021/03/09 04:56:05;;;;;;;9.88;5.80;;;18.60;99.90;;;;;;4995511;28;20101;-34
2021/03/09 04:58:31;;;;;;;11.93;6.03;;;18.50;99.90;;;;;;4999940;28;20056;-34
2021/03/09 05:00:57;;;;;;;10.65;6.47;;;18.50;99.90;;;;;;5013379;28;20037;-35
2021/03/09 05:03:23;;;;;;;13.18;6.13;;;18.50;99.90;;;;;;5014044;28;20640;-34
2021/03/09 05:05:50;;;;;;;14.57;6.32;;;18.50;99.90;;;;;;4998546;28;20141;-35
2021/03/09 05:08:16;;;;;;;8.73;5.43;;;18.50;99.90;;;;;;4994493;28;20018;-35
2021/03/09 05:10:42;;;;;;;10.35;5.88;;;18.50;99.90;;;;;;5007320;28;20041;-35
2021/03/09 05:13:08;;;;;;;12.13;6.57;;;18.50;99.90;;;;;;5013846;28;20109;-35
2021/03/09 05:15:34;;;;;;;14.60;6.22;;;18.50;99.90;;;;;;5002172;28;20026;-35
2021/03/09 05:17:59;;;;;;;9.75;5.70;;;18.50;99.90;;;;;;4994273;28;20377;-34
2021/03/09 05:20:25;;;;;;;11.43;5.90;;;18.50;99.90;;;;;;5003649;28;20026;-34
2021/03/09 05:22:52;;;;;;;15.00;5.88;;;18.50;99.90;;;;;;5013735;28;20017;-34
2021/03/09 05:25:18;;;;;;;11.57;6.70;;;18.50;99.90;;;;;;5005619;28;20401;-35
2021/03/09 05:27:47;;;;;;;11.93;6.53;;;18.40;99.90;;;;;;4994092;28;20442;-35
2021/03/09 05:30:15;;;;;;;12.73;6.55;;;18.50;99.90;;;;;;5000278;28;20444;-34
2021/03/09 05:32:41;;;;;;;12.95;6.82;;;18.40;99.90;;;;;;5012353;28;20460;-35
2021/03/09 05:35:08;;;;;;;12.75;6.57;;;18.40;99.90;;;;;;5010673;28;20503;-34
2021/03/09 05:37:34;;;;;;;13.93;6.13;;;18.40;99.90;;;;;;5013480;28;20017;-35
2021/03/09 05:40:00;;;;;;;10.73;6.30;;;18.40;99.90;;;;;;5010249;28;20362;-35
2021/03/09 05:42:26;;;;;;;9.70;6.05;;;18.40;99.90;;;;;;4994077;28;20037;-35
2021/03/09 05:44:52;;;;;;;12.50;5.78;;;18.50;99.90;;;;;;4994937;28;20113;-35
2021/03/09 05:47:18;;;;;;;11.80;6.22;;;18.40;99.90;;;;;;5013582;28;20054;-34
2021/03/09 05:49:47;;;;;;;10.43;5.63;;;18.50;99.90;;;;;;5013000;28;20060;-35
2021/03/09 05:52:17;;;;;;;7.53;5.53;;;18.40;99.90;;;;;;5010448;28;20361;-36
2021/03/09 05:54:43;;;;;;;12.73;6.47;;;18.40;99.90;;;;;;5013436;28;20390;-34
2021/03/09 05:57:09;;;;;;;13.65;6.60;;;18.40;99.90;;;;;;4995354;28;20054;-35
2021/03/09 05:59:35;;;;;;;9.98;5.95;;;18.30;99.90;;;;;;4996942;28;20064;-34
2021/03/09 06:02:02;;;;;;;8.60;5.47;;;18.40;99.90;;;;;;5013443;28;20029;-34
2021/03/09 06:04:40;;;;;;;11.73;5.65;;;18.30;99.90;;;;;;5010886;28;20158;-34
2021/03/09 06:07:06;;;;;;;;;;;18.40;99.90;;;;;;5000854;28;20035;-34
2021/03/09 06:09:39;;;;;;;9.70;5.38;;;18.40;99.90;;;;;;5006084;28;20288;-35
2021/03/09 06:12:21;;;;;;;11.50;5.32;;;18.40;99.90;;;;;;4995518;28;20026;-35
2021/03/09 06:14:56;;;;;;;12.25;5.95;;;18.30;99.90;;;;;;5009575;28;20372;-35
2021/03/09 06:17:25;;;;;;;11.95;5.57;;;18.30;99.90;;;;;;5005863;28;20109;-34
2021/03/09 06:19:51;;;;;;;11.93;5.47;;;18.30;99.90;;;;;;5011692;28;20034;-35
2021/03/09 06:22:18;;;;;;;11.00;5.68;;;18.30;99.90;;;;;;4991927;28;20674;-35
2021/03/09 06:24:45;;;;;;;8.90;5.13;;;18.30;99.90;;;;;;4993297;28;20026;-35
2021/03/09 06:27:32;;;;;;;9.07;5.55;;;18.30;99.90;;;;;;4991900;28;20031;-35
2021/03/09 06:29:59;;;;;;;12.25;4.95;;;18.30;99.90;;;;;;4993318;28;20037;-35
2021/03/09 06:32:26;;;;;;;8.75;5.72;;;18.30;99.90;;;;;;4996118;28;20494;-35
2021/03/09 06:34:53;;;;;;;7.23;5.43;;;18.30;99.90;;;;;;5012697;28;20034;-35
2021/03/09 06:37:26;;;;;;;12.27;5.75;;;18.30;99.90;;;;;;5012984;28;20491;-35
2021/03/09 06:40:06;;;;;;;13.45;6.50;;;18.30;99.90;;;;;;5012858;28;20029;-35
2021/03/09 06:42:38;;;;;;;18.27;5.63;;;18.30;99.90;;;;;;5010422;28;20047;-35
2021/03/09 06:45:08;;;;;;;30.00;19.88;;;18.30;99.90;;;;;;4998081;28;20021;-35
2021/03/09 06:47:38;;;;;;;22.05;16.17;;;18.30;99.90;;;;;;5011411;28;20472;-35
2021/03/09 06:50:10;;;;;;;26.52;18.63;;;18.20;99.90;;;;;;5012710;28;20026;-35
2021/03/09 06:52:36;;;;;;;33.90;25.58;;;18.20;99.90;;;;;;5012234;28;20376;-35
2021/03/09 06:55:03;;;;;;;37.08;28.05;;;18.20;99.90;;;;;;5012954;28;20090;-35
2021/03/09 06:57:29;;;;;;;230.00;182.70;;;18.20;99.90;;;;;;4998622;28;20019;-35
2021/03/09 06:59:55;;;;;;;92.05;70.50;;;18.20;99.90;;;;;;5009591;28;20026;-35
2021/03/09 07:02:23;;;;;;;102.07;75.28;;;18.20;99.90;;;;;;5015353;28;20041;-35
2021/03/09 07:05:15;;;;;;;115.30;86.32;;;18.20;99.90;;;;;;5009569;28;20033;-35
2021/03/09 07:07:42;;;;;;;109.95;81.53;;;18.20;99.90;;;;;;5013345;28;20046;-35
2021/03/09 07:10:11;;;;;;;97.07;76.03;;;18.20;99.90;;;;;;5010220;28;20042;-35
2021/03/09 07:12:39;;;;;;;100.78;78.55;;;18.20;99.90;;;;;;5010121;28;20038;-35
2021/03/09 07:15:08;;;;;;;100.40;76.00;;;18.20;99.90;;;;;;5015865;28;20050;-35
2021/03/09 07:17:36;;;;;;;88.82;71.82;;;18.30;99.90;;;;;;5015847;28;20022;-35
2021/03/09 07:20:04;;;;;;;90.82;71.10;;;18.30;99.90;;;;;;5015839;28;20532;-35
2021/03/09 07:22:30;;;;;;;84.60;67.93;;;18.30;99.90;;;;;;5015955;28;20087;-36
2021/03/09 07:25:08;;;;;;;94.85;68.55;;;18.30;99.90;;;;;;5015882;28;20030;-35
2021/03/09 07:27:45;;;;;;;83.63;66.60;;;18.30;99.90;;;;;;5015690;28;20029;-35
2021/03/09 07:30:13;;;;;;;;;;;18.30;99.90;;;;;;5015908;28;20053;-35
2021/03/09 07:32:41;;;;;;;;;;;18.40;99.90;;;;;;5016249;28;19912;-35
2021/03/09 07:35:08;;;;;;;80.60;62.13;;;18.40;99.90;;;;;;5015595;28;19955;-37
2021/03/09 07:37:39;;;;;;;74.15;59.97;;;18.40;99.90;;;;;;5015500;28;20079;-35
2021/03/09 07:40:23;;;;;;;73.05;57.13;;;18.40;99.90;;;;;;5015578;28;20104;-35
2021/03/09 07:42:49;;;;;;;225.23;174.88;;;18.40;99.90;;;;;;5014285;28;20057;-37
2021/03/09 07:45:20;;;;;;;353.85;289.50;;;18.50;99.90;;;;;;5015368;28;20060;-36
2021/03/09 07:47:55;;;;;;;453.10;387.95;;;18.40;99.90;;;;;;5015405;28;20109;-35
2021/03/09 07:50:23;;;;;;;279.38;220.82;;;18.40;99.90;;;;;;5015038;28;20030;-36
2021/03/09 07:53:10;;;;;;;280.80;225.63;;;18.40;99.90;;;;;;5015266;28;20022;-35
2021/03/09 07:55:38;;;;;;;254.90;210.55;;;18.50;99.90;;;;;;5007111;28;20045;-35
2021/03/09 07:58:26;;;;;;;245.02;196.43;;;18.50;99.90;;;;;;5015144;28;20030;-35
2021/03/09 08:01:04;;;;;;;229.45;184.52;;;18.60;99.90;;;;;;5006186;28;20049;-36
2021/03/09 08:03:32;;;;;;;215.80;170.23;;;18.60;99.90;;;;;;5005664;28;20022;-35
2021/03/09 08:05:59;;;;;;;166.63;133.68;;;18.70;99.90;;;;;;4995115;28;20081;-35
2021/03/09 08:08:45;;;;;;;169.30;129.37;;;18.70;99.90;;;;;;4993273;28;20031;-36
2021/03/09 08:11:14;;;;;;;143.75;114.97;;;18.70;99.90;;;;;;4995277;28;20266;-35
2021/03/09 08:13:41;;;;;;;128.10;99.32;;;18.70;99.90;;;;;;4993980;28;20025;-35
2021/03/09 08:16:24;;;;;;;107.80;81.05;;;18.80;99.90;;;;;;4995127;28;20018;-35
2021/03/09 08:19:04;;;;;;;91.95;68.50;;;18.80;99.90;;;;;;4995157;28;20065;-35
2021/03/09 08:21:54;;;;;;;87.43;62.35;;;18.80;99.90;;;;;;4994945;28;20029;-35
2021/03/09 08:24:39;;;;;;;75.63;56.25;;;18.90;99.90;;;;;;4994912;28;20037;-35
2021/03/09 08:27:05;;;;;;;70.68;50.65;;;18.90;99.90;;;;;;4994696;28;20022;-35
2021/03/09 08:29:32;;;;;;;62.95;47.05;;;18.90;99.90;;;;;;4994153;28;20034;-32
2021/03/09 08:32:23;;;;;;;63.03;44.97;;;18.90;99.90;;;;;;4993364;28;20400;-35
2021/03/09 08:35:12;;;;;;;58.30;41.67;;;18.90;99.90;;;;;;4993585;28;20022;-32
2021/03/09 08:37:39;;;;;;;47.17;35.90;;;18.90;99.90;;;;;;5005433;28;20025;-32
2021/03/09 08:40:10;;;;;;;49.08;32.45;;;18.90;99.90;;;;;;4997496;28;20080;-32
2021/03/09 08:43:00;;;;;;;43.00;27.95;;;19.00;99.90;;;;;;4994381;28;20034;-35
2021/03/09 08:45:33;;;;;;;37.83;21.48;;;19.00;99.90;;;;;;4994454;28;20034;-35
2021/03/09 08:48:00;;;;;;;33.65;19.35;;;19.00;99.90;;;;;;4994527;28;20380;-35
2021/03/09 08:50:38;;;;;;;36.80;20.13;;;19.00;99.90;;;;;;5006920;28;20026;-35
2021/03/09 08:53:04;;;;;;;36.67;22.58;;;19.00;99.90;;;;;;5013837;28;20527;-35
2021/03/09 08:55:30;;;;;;;44.78;25.48;;;19.00;99.90;;;;;;5012537;28;20168;-35
2021/03/09 08:57:56;;;;;;;50.10;26.35;;;19.10;99.90;;;;;;5013837;28;20101;-41
2021/03/09 09:00:22;;;;;;;42.40;23.98;;;19.10;99.90;;;;;;5012679;28;20109;-40
2021/03/09 09:02:49;;;;;;;72.90;47.70;;;19.20;99.90;;;;;;4993909;28;20053;-40
2021/03/09 09:05:15;;;;;;;62.20;39.63;;;19.20;99.90;;;;;;5002449;28;20030;-39
2021/03/09 09:07:44;;;;;;;63.07;37.17;;;19.20;99.90;;;;;;4996075;28;20054;-40
2021/03/09 09:10:18;;;;;;;55.92;32.80;;;19.20;99.90;;;;;;5000585;28;20484;-36
2021/03/09 09:12:47;;;;;;;42.15;21.92;;;19.20;99.90;;;;;;5002140;28;20065;-37
2021/03/09 09:15:29;;;;;;;26.98;15.68;;;19.20;99.90;;;;;;5004442;28;20026;-37
2021/03/09 09:17:59;;;;;;;25.45;15.10;;;19.10;99.90;;;;;;4999611;28;20027;-37
2021/03/09 09:20:34;;;;;;;22.85;10.52;;;19.20;99.90;;;;;;5005450;28;20034;-37
2021/03/09 09:23:05;;;;;;;25.13;11.07;;;19.20;99.90;;;;;;5001394;28;20025;-37
2021/03/09 09:28:08;;;;;;;22.30;8.90;;;19.20;99.90;;;;;;5088185;27;20507;-38
2021/03/09 09:30:46;;;;;;;19.55;8.57;;;19.20;99.90;;;;;;5087487;28;20028;-40
2021/03/09 09:33:13;;;;;;;20.58;7.53;;;19.30;99.90;;;;;;5088033;28;20059;-40
2021/03/09 09:35:40;;;;;;;15.02;6.93;;;19.30;99.90;;;;;;5088217;28;20020;-41
2021/03/09 09:38:14;;;;;;;33.60;21.33;;;19.20;99.90;;;;;;5085847;28;20032;-41
2021/03/09 09:40:45;;;;;;;42.97;25.42;;;19.20;99.90;;;;;;5083580;28;20023;-40
2021/03/09 09:43:19;;;;;;;32.70;21.17;;;19.20;99.90;;;;;;5087416;28;20478;-37
2021/03/09 09:45:59;;;;;;;36.22;23.65;;;19.20;99.90;;;;;;5086515;28;20032;-37
2021/03/09 09:48:31;;;;;;;33.63;20.15;;;19.20;99.90;;;;;;5086272;28;20020;-37
2021/03/09 09:50:59;;;;;;;28.73;17.13;;;19.30;99.90;;;;;;5088193;28;20462;-38
2021/03/09 09:53:28;;;;;;;28.80;14.07;;;19.40;99.90;;;;;;5088350;28;20044;-37
2021/03/09 09:55:55;;;;;;;20.38;11.85;;;19.30;99.90;;;;;;5089410;28;20043;-37
2021/03/09 09:58:22;;;;;;;44.65;10.13;;;19.40;99.90;;;;;;5089333;28;20374;-39
2021/03/09 10:00:55;;;;;;;39.72;11.23;;;19.50;99.90;;;;;;5088148;28;20482;-39
2021/03/09 10:03:21;;;;;;;38.78;11.07;;;19.50;99.90;;;;;;5086863;28;20028;-40
2021/03/09 10:05:47;;;;;;;51.10;27.45;;;19.50;99.90;;;;;;5089371;28;20020;-36
2021/03/09 10:08:33;;;;;;;34.42;16.80;;;19.60;99.90;;;;;;5088137;28;20020;-39
2021/03/09 10:11:03;;;;;;;31.83;16.77;;;19.60;99.90;;;;;;5087939;28;20405;-38
2021/03/09 10:13:29;;;;;;;25.73;14.38;;;19.70;99.90;;;;;;5086701;28;20074;-40
2021/03/09 10:15:55;;;;;;;20.55;12.90;;;19.70;99.90;;;;;;5089283;28;20024;-39
2021/03/09 10:18:33;;;;;;;28.63;11.48;;;19.70;99.90;;;;;;5088852;28;20081;-39
2021/03/09 10:21:09;;;;;;;20.83;12.00;;;19.70;99.90;;;;;;5089126;28;20019;-38
2021/03/09 10:23:59;;;;;;;26.40;12.40;;;19.70;99.90;;;;;;5075990;28;20358;-38
2021/03/09 10:26:32;;;;;;;27.40;10.90;;;19.80;99.90;;;;;;5088487;28;20048;-38
2021/03/09 10:29:06;;;;;;;30.02;11.27;;;19.80;99.90;;;;;;5087328;28;20024;-38
2021/03/09 10:31:43;;;;;;;21.98;10.10;;;19.90;99.90;;;;;;5088681;28;20019;-38
2021/03/09 10:34:10;;;;;;;18.25;10.35;;;19.90;99.90;;;;;;5086432;28;20098;-38
2021/03/09 10:37:02;;;;;;;18.88;8.82;;;20.00;99.90;;;;;;5087000;28;20029;-38
2021/03/09 10:39:31;;;;;;;222.93;171.77;;;20.00;99.90;;;;;;5074199;28;20466;-38
2021/03/09 10:42:18;;;;;;;151.48;115.93;;;20.10;99.90;;;;;;5068065;28;20046;-38
2021/03/09 10:44:44;;;;;;;68.03;52.38;;;20.20;99.90;;;;;;5057502;28;20029;-36
2021/03/09 10:47:12;;;;;;;71.15;51.63;;;20.30;99.90;;;;;;5055060;28;20036;-39
2021/03/09 10:49:38;;;;;;;16.27;9.45;;;20.20;99.90;;;;;;5054887;28;20032;-40
2021/03/09 10:52:06;;;;;;;20.38;10.73;;;20.30;99.90;;;;;;5055087;28;20021;-38
2021/03/09 10:54:32;;;;;;;17.27;11.38;;;20.30;99.90;;;;;;5053637;28;20025;-37
2021/03/09 10:56:59;;;;;;;14.82;6.90;;;20.30;99.90;;;;;;5054718;28;20025;-38
2021/03/09 10:59:25;;;;;;;13.77;6.80;;;20.40;99.90;;;;;;5053270;28;20028;-37
2021/03/09 11:01:52;;;;;;;177.55;136.48;;;20.40;99.90;;;;;;5054608;28;20039;-37
2021/03/09 11:04:18;;;;;;;121.20;96.15;;;20.50;99.90;;;;;;5063349;28;20371;-37
2021/03/09 11:06:44;;;;;;;90.22;70.57;;;20.60;99.90;;;;;;5073911;28;20035;-36
2021/03/09 11:09:10;;;;;;;64.10;50.72;;;20.60;99.90;;;;;;5073925;28;20025;-36
2021/03/09 11:11:36;;;;;;;65.28;45.95;;;20.70;99.90;;;;;;5073932;28;20027;-37
2021/03/09 11:14:02;;;;;;;52.70;38.67;;;20.70;99.90;;;;;;5073654;28;20028;-37
2021/03/09 11:16:30;;;;;;;42.05;30.67;;;20.70;99.90;;;;;;5072566;28;20021;-37
2021/03/09 11:18:57;;;;;;;31.00;21.02;;;20.80;99.90;;;;;;5072867;28;20115;-37
2021/03/09 11:21:23;;;;;;;17.23;10.13;;;20.80;99.90;;;;;;5071885;28;20078;-35
2021/03/09 11:23:51;;;;;;;10.45;4.88;;;20.80;99.90;;;;;;5072956;28;20086;-36
2021/03/09 11:26:23;;;;;;;;;;;20.80;99.90;;;;;;5073033;28;20048;-36
2021/03/09 11:28:51;;;;;;;19.88;14.60;;;20.80;99.90;;;;;;5072582;28;20007;-36
2021/03/09 11:31:17;;;;;;;23.20;15.40;;;20.90;99.90;;;;;;5070492;28;20020;-37
2021/03/09 11:33:43;;;;;;;43.03;30.48;;;20.90;99.90;;;;;;5073248;28;20103;-37
2021/03/09 11:36:11;;;;;;;35.35;21.42;;;21.00;99.90;;;;;;5074278;28;20060;-37
2021/03/09 11:38:41;;;;;;;20.17;8.70;;;21.00;99.90;;;;;;5073939;28;20048;-36
2021/03/09 11:41:07;;;;;;;13.38;5.05;;;21.00;99.90;;;;;;5072536;28;20025;-37
2021/03/09 11:43:33;;;;;;;8.63;4.25;;;21.10;99.90;;;;;;5073900;28;20028;-39
2021/03/09 11:46:00;;;;;;;12.35;3.85;;;21.10;99.90;;;;;;5074145;28;20027;-36
2021/03/09 11:48:26;;;;;;;9.83;4.13;;;21.10;99.90;;;;;;5073852;28;20016;-37
2021/03/09 11:50:52;;;;;;;11.95;3.58;;;21.10;99.90;;;;;;5072716;28;20249;-37
2021/03/09 11:53:18;;;;;;;6.20;3.30;;;21.10;99.90;;;;;;5073093;28;20505;-36
2021/03/09 11:55:45;;;;;;;8.45;3.05;;;21.20;99.90;;;;;;5073168;28;20029;-36
2021/03/09 11:58:11;;;;;;;21.23;4.65;;;21.20;99.90;;;;;;5071657;28;20035;-34
2021/03/09 12:00:37;;;;;;;17.20;3.90;;;21.20;99.90;;;;;;5072565;28;20033;-36
2021/03/09 12:03:03;;;;;;;11.68;3.80;;;21.20;99.90;;;;;;5073798;28;20062;-37
2021/03/09 12:05:29;;;;;;;18.05;4.18;;;21.30;99.90;;;;;;5073149;28;20096;-36
2021/03/09 12:07:55;;;;;;;15.85;3.90;;;21.30;99.90;;;;;;5072458;28;20081;-36
2021/03/09 12:10:21;;;;;;;13.50;3.88;;;21.40;99.90;;;;;;5071136;28;20025;-35
2021/03/09 12:12:47;;;;;;;21.17;8.43;;;21.50;99.90;;;;;;5071018;28;20024;-36
2021/03/09 12:15:14;;;;;;;45.65;33.15;;;21.50;99.90;;;;;;5072328;28;20096;-35
2021/03/09 12:17:40;;;;;;;47.88;37.55;;;21.60;99.90;;;;;;5072467;28;20097;-33
2021/03/09 12:20:08;;;;;;;59.85;43.83;;;21.60;99.90;;;;;;5071692;28;20060;-35
2021/03/09 12:22:34;;;;;;;24.38;19.33;;;21.60;99.90;;;;;;5072769;28;20020;-34
2021/03/09 12:25:00;;;;;;;15.55;8.07;;;21.60;99.90;;;;;;5073252;28;20024;-35
2021/03/09 12:27:26;;;;;;;14.55;5.93;;;21.60;99.90;;;;;;5065482;28;20057;-35
2021/03/09 12:29:52;;;;;;;9.48;5.50;;;21.70;99.90;;;;;;5056606;28;20466;-35
2021/03/09 12:32:18;;;;;;;11.45;6.13;;;21.80;99.90;;;;;;5073375;28;20074;-34
2021/03/09 12:34:44;;;;;;;105.35;84.65;;;21.70;99.90;;;;;;5071486;28;20020;-35
2021/03/09 12:37:10;;;;;;;58.35;47.20;;;21.80;99.90;;;;;;5072607;28;20044;-35
2021/03/09 12:39:36;;;;;;;31.15;19.60;;;21.80;99.90;;;;;;5072223;28;20115;-35
2021/03/09 12:42:02;;;;;;;34.88;16.30;;;21.70;99.90;;;;;;5071764;28;20536;-35
2021/03/09 12:44:28;;;;;;;18.45;10.27;;;21.80;99.90;;;;;;5072357;28;20052;-36
2021/03/09 12:46:53;;;;;;;13.20;6.30;;;21.70;99.90;;;;;;5071530;28;20032;-36
2021/03/09 12:49:20;;;;;;;11.73;4.30;;;21.70;99.90;;;;;;5072279;28;20025;-36